Terminal Aerodrome Forecast
Issued by NWS

Home | Current Version | Previous Version | Graphics & Text | Print | Product List | Glossary On
Versions: 1 2 3 4 5 6 7 8 9 10 11 12 13 14 15 16
000
FTUS43 KIWX 251100
TAFSBN
TAF
KSBN 251135Z 2512/2612 15004KT P6SM SCT035
      TEMPO 2512/2513 5SM BR BKN030
     FM251400 19006KT P6SM SCT035 BKN200
     FM260800 22004KT 5SM BR VCSH BKN035=

USA.gov is the U.S. government's official web portal to all federal, state and local government web resources and services.